Time;durP1;ratioP1;P1;durP2;ratioP2;P2;SDS_P1;SDS_P2;PMS_P1;PMS_P2;Temp;Humidity;BMP_temperature;BMP_pressure;BME280_temperature;BME280_humidity;BME280_pressure;Samples;Min_cycle;Max_cycle;Signal;HPM_P1;HPM_P2
2022/12/09 00:00:02;;;;;;;;;;;;;;;;;;5032769;28;19925;-76
2022/12/09 00:02:28;;;;;;;;;;;;;;;;;;5031636;28;19931;-76
2022/12/09 00:04:55;;;;;;;;;;;;;;;;;;5031332;28;20002;-76
2022/12/09 00:07:21;;;;;;;;;;;;;;;;;;5035257;28;19925;-76
2022/12/09 00:09:48;;;;;;;;;;;;;;;;;;5035035;28;20408;-75
2022/12/09 00:12:14;;;;;;;;;;;;;;;;;;5035107;28;20605;-76
2022/12/09 00:14:42;;;;;;;;;;;;;;;;;;5036010;28;20019;-77
2022/12/09 00:17:08;;;;;;;;;;;;;;;;;;5035005;28;20416;-76
2022/12/09 00:19:35;;;;;;;;;;;;;;;;;;5035600;28;20004;-77
2022/12/09 00:22:01;;;;;;;;;;;;;;;;;;5035018;28;20332;-77
2022/12/09 00:24:28;;;;;;;;;;;;;;;;;;5037301;28;19936;-76
2022/12/09 00:26:54;;;;;;;;;;;;;;;;;;5036415;28;20016;-77
2022/12/09 00:29:21;;;;;;;;;;;;;;;;;;5036248;28;20016;-77
2022/12/09 00:31:48;;;;;;;;;;;;;;;;;;5034968;28;19969;-78
2022/12/09 00:34:15;;;;;;;;;;;;;;;;;;5036089;28;19983;-77
2022/12/09 00:36:41;;;;;;;;;;;;;;;;;;5034897;28;19925;-79
2022/12/09 00:39:08;;;;;;;;;;;;;;;;;;5035284;28;19925;-77
2022/12/09 00:41:34;;;;;;;;;;;;;;;;;;5034652;28;19968;-78
2022/12/09 00:44:01;;;;;;;;;;;;;;;;;;5034517;28;19983;-77
2022/12/09 00:46:27;;;;;;;;;;;;;;;;;;5034920;28;19932;-77
2022/12/09 00:48:55;;;;;;;;;;;;;;;;;;5034509;28;20392;-77
2022/12/09 00:51:22;;;;;;;;;;;;;;;;;;5034431;28;20004;-76
2022/12/09 00:53:52;;;;;;;;;;;;;;;;;;5034639;28;19971;-75
2022/12/09 00:56:19;;;;;;;;;;;;;;;;;;5034180;28;19949;-76
2022/12/09 00:58:45;;;;;;;;;;;;;;;;;;5034822;28;20015;-76
2022/12/09 01:01:12;;;;;;;;;;;;;;;;;;5034475;28;20004;-76
2022/12/09 01:03:38;;;;;;;;;;;;;;;;;;5034362;28;20017;-77
2022/12/09 01:06:09;;;;;;;;;;;;;;;;;;5033657;28;19971;-77
2022/12/09 01:08:35;;;;;;;;;;;;;;;;;;5034370;28;20300;-76
2022/12/09 01:11:07;;;;;;;;;;;;;;;;;;5034244;28;20016;-76
2022/12/09 01:13:34;;;;;;;;;;;;;;;;;;5034459;28;19979;-76
2022/12/09 01:16:00;;;;;;;;;;;;;;;;;;5034067;28;20019;-76
2022/12/09 01:18:27;;;;;;;;;;;;;;;;;;5034081;28;20008;-77
2022/12/09 01:20:55;;;;;;;;;;;;;;;;;;5033586;28;20015;-76
2022/12/09 01:23:23;;;;;;;;;;;;;;;;;;5034010;28;20007;-75
2022/12/09 01:25:50;;;;;;;;;;;;;;;;;;5033964;28;20028;-76
2022/12/09 01:28:16;;;;;;;;;;;;;;;;;;5034086;28;20036;-76
2022/12/09 01:30:43;;;;;;;;;;;;;;;;;;5033336;28;20474;-76
2022/12/09 01:33:10;;;;;;;;;;;;;;;;;;5034419;28;19925;-76
2022/12/09 01:35:39;;;;;;;;;;;;;;;;;;5033855;28;20017;-76
2022/12/09 01:38:05;;;;;;;;;;;;;;;;;;5033828;28;20004;-76
2022/12/09 01:40:33;;;;;;;;;;;;;;;;;;5033606;28;19972;-75
2022/12/09 01:43:00;;;;;;;;;;;;;;;;;;5033575;28;19929;-77
2022/12/09 01:45:37;;;;;;;;;;;;;;;;;;5033438;28;20016;-77
2022/12/09 01:48:05;;;;;;;;;;;;;;;;;;5032663;28;20012;-76
2022/12/09 01:50:32;;;;;;;;;;;;;;;;;;5027481;28;20365;-76
2022/12/09 01:52:59;;;;;;;;;;;;;;;;;;5013884;28;20016;-76
2022/12/09 01:55:25;;;;;;;;;;;;;;;;;;5013997;28;20273;-77
2022/12/09 01:57:53;;;;;;;;;;;;;;;;;;5025741;28;20442;-77
2022/12/09 02:00:20;;;;;;;;;;;;;;;;;;5033732;28;20018;-76
2022/12/09 02:02:48;;;;;;;;;;;;;;;;;;5033810;28;20273;-77
2022/12/09 02:05:15;;;;;;;;;;;;;;;;;;5033743;28;20007;-77
2022/12/09 02:07:41;;;;;;;;;;;;;;;;;;5033849;28;19968;-77
2022/12/09 02:10:09;;;;;;;;;;;;;;;;;;5033277;28;20011;-77
2022/12/09 02:12:38;;;;;;;;;;;;;;;;;;5036108;28;19964;-76
2022/12/09 02:15:08;;;;;;;;;;;;;;;;;;5036143;28;20027;-77
2022/12/09 02:17:37;;;;;;;;;;;;;;;;;;5035654;28;19964;-77
2022/12/09 02:20:08;;;;;;;;;;;;;;;;;;5036317;28;19925;-78
2022/12/09 02:22:38;;;;;;;;;;;;;;;;;;5035682;28;19960;-77
2022/12/09 02:25:10;;;;;;;;;;;;;;;;;;5035366;28;19968;-77
2022/12/09 02:27:41;;;;;;;;;;;;;;;;;;5034560;28;19948;-77
2022/12/09 02:30:12;;;;;;;;;;;;;;;;;;5035251;28;19964;-77
2022/12/09 02:33:00;;;;;;;;;;;;;;;;;;5035797;28;19925;-77
2022/12/09 02:35:31;;;;;;;;;;;;;;;;;;5034717;28;20096;-76
2022/12/09 02:38:00;;;;;;;;;;;;;;;;;;5035356;28;19972;-77
2022/12/09 02:40:29;;;;;;;;;;;;;;;;;;5035642;28;19960;-78
2022/12/09 02:42:56;;;;;;;;;;;;;;;;;;5036373;28;20372;-77
2022/12/09 02:45:23;;;;;;;;;;;;;;;;;;5036222;28;20008;-76
2022/12/09 02:47:51;;;;;;;;;;;;;;;;;;5034813;28;20003;-78
2022/12/09 02:50:20;;;;;;;;;;;;;;;;;;5035257;28;19983;-76
2022/12/09 02:52:49;;;;;;;;;;;;;;;;;;5034682;28;19931;-77
2022/12/09 02:55:16;;;;;;;;;;;;;;;;;;5034187;28;19972;-76
2022/12/09 02:57:43;;;;;;;;;;;;;;;;;;5034896;28;20410;-76
2022/12/09 03:00:11;;;;;;;;;;;;;;;;;;5034815;28;20463;-76
2022/12/09 03:02:39;;;;;;;;;;;;;;;;;;5032721;28;19925;-76
2022/12/09 03:05:10;;;;;;;;;;;;;;;;;;5032700;28;19925;-77
2022/12/09 03:07:40;;;;;;;;;;;;;;;;;;5032515;28;19968;-77
2022/12/09 03:10:10;;;;;;;;;;;;;;;;;;5032811;28;20432;-77
2022/12/09 03:12:38;;;;;;;;;;;;;;;;;;5032577;28;19967;-76
2022/12/09 03:15:06;;;;;;;;;;;;;;;;;;5032541;28;19979;-77
2022/12/09 03:17:34;;;;;;;;;;;;;;;;;;5032020;28;19929;-76
2022/12/09 03:20:03;;;;;;;;;;;;;;;;;;5012541;28;20444;-76
2022/12/09 03:22:30;;;;;;;;;;;;;;;;;;5012695;28;19973;-77
2022/12/09 03:24:58;;;;;;;;;;;;;;;;;;5031976;28;20027;-77
2022/12/09 03:27:28;;;;;;;;;;;;;;;;;;5032475;28;19972;-77
2022/12/09 03:29:55;;;;;;;;;;;;;;;;;;5034651;28;19931;-76
2022/12/09 03:32:24;;;;;;;;;;;;;;;;;;5035961;28;19937;-76
2022/12/09 03:34:52;;;;;;;;;;;;;;;;;;5036111;28;20415;-77
2022/12/09 03:37:19;;;;;;;;;;;;;;;;;;5036372;28;20447;-77
2022/12/09 03:39:47;;;;;;;;;;;;;;;;;;5036382;28;19932;-77
2022/12/09 03:42:16;;;;;;;;;;;;;;;;;;5036345;28;20016;-75
2022/12/09 03:44:47;;;;;;;;;;;;;;;;;;5036491;28;19931;-77
2022/12/09 03:47:13;;;;;;;;;;;;;;;;;;5071740;22;19932;-75
2022/12/09 03:49:40;;;;;;;;;;;;;;;;;;5056695;28;20007;-74
2022/12/09 03:52:09;;;;;;;;;;;;;;;;;;5055322;28;20015;-74
2022/12/09 03:54:40;;;;;;;;;;;;;;;;;;5035530;28;19979;-75
2022/12/09 03:57:09;;;;;;;;;;;;;;;;;;5037188;28;19999;-75
2022/12/09 03:59:35;;;;;;;;;;;;;;;;;;5035751;28;19979;-74
2022/12/09 04:02:05;;;;;;;;;;;;;;;;;;5034950;28;20023;-74
2022/12/09 04:04:32;;;;;;;;;;;;;;;;;;5036458;28;20330;-76
2022/12/09 04:06:58;;;;;;;;;;;;;;;;;;5044990;28;19975;-74
2022/12/09 04:09:25;;;;;;;;;;;;;;;;;;5046486;28;19925;-74
2022/12/09 04:11:51;;;;;;;;;;;;;;;;;;5043898;28;19995;-75
2022/12/09 04:14:18;;;;;;;;;;;;;;;;;;5037066;28;19925;-75
2022/12/09 04:16:44;;;;;;;;;;;;;;;;;;5035523;28;19995;-75
2022/12/09 04:19:12;;;;;;;;;;;;;;;;;;5035341;28;20527;-74
2022/12/09 04:21:39;;;;;;;;;;;;;;;;;;5035088;28;19956;-75
2022/12/09 04:24:06;;;;;;;;;;;;;;;;;;5025370;28;19968;-73
2022/12/09 04:26:32;;;;;;;;;;;;;;;;;;5034906;28;20008;-74
2022/12/09 04:28:59;;;;;;;;;;;;;;;;;;5035485;28;19948;-75
2022/12/09 04:31:26;;;;;;;;;;;;;;;;;;5034987;28;20455;-74
2022/12/09 04:33:52;;;;;;;;;;;;;;;;;;5035309;28;20403;-75
2022/12/09 04:36:20;;;;;;;;;;;;;;;;;;5034500;28;19932;-75
2022/12/09 04:38:47;;;;;;;;;;;;;;;;;;5035361;28;19968;-75
2022/12/09 04:41:14;;;;;;;;;;;;;;;;;;5034213;28;20430;-75
2022/12/09 04:43:41;;;;;;;;;;;;;;;;;;5035231;28;20358;-74
2022/12/09 04:46:09;;;;;;;;;;;;;;;;;;5035256;28;20019;-75
2022/12/09 04:48:36;;;;;;;;;;;;;;;;;;5035236;28;19971;-76
2022/12/09 04:51:03;;;;;;;;;;;;;;;;;;5035344;28;19965;-74
2022/12/09 04:53:31;;;;;;;;;;;;;;;;;;5035524;28;19976;-75
2022/12/09 04:56:00;;;;;;;;;;;;;;;;;;5035206;28;20019;-76
2022/12/09 04:58:27;;;;;;;;;;;;;;;;;;5035309;28;19992;-76
2022/12/09 05:00:53;;;;;;;;;;;;;;;;;;5034327;28;19984;-75
2022/12/09 05:03:20;;;;;;;;;;;;;;;;;;5034437;28;19958;-75
2022/12/09 05:05:46;;;;;;;;;;;;;;;;;;5031441;28;20026;-75
2022/12/09 05:08:13;;;;;;;;;;;;;;;;;;5034636;28;19968;-74
2022/12/09 05:10:41;;;;;;;;;;;;;;;;;;5033712;28;20032;-75
2022/12/09 05:13:08;;;;;;;;;;;;;;;;;;5034539;28;19925;-75
2022/12/09 05:15:34;;;;;;;;;;;;;;;;;;5034056;28;19960;-76
2022/12/09 05:18:01;;;;;;;;;;;;;;;;;;5034372;28;19968;-75
2022/12/09 05:20:28;;;;;;;;;;;;;;;;;;5033845;28;19956;-75
2022/12/09 05:22:54;;;;;;;;;;;;;;;;;;5034283;28;20388;-75
2022/12/09 05:25:21;;;;;;;;;;;;;;;;;;5034213;28;19971;-75
2022/12/09 05:27:49;;;;;;;;;;;;;;;;;;5034480;28;20329;-74
2022/12/09 05:30:16;;;;;;;;;;;;;;;;;;5034315;28;19972;-74
2022/12/09 05:32:42;;;;;;;;;;;;;;;;;;5036488;28;20019;-75
2022/12/09 05:35:09;;;;;;;;;;;;;;;;;;5034131;28;19978;-76
2022/12/09 05:37:36;;;;;;;;;;;;;;;;;;5033977;28;19925;-75
2022/12/09 05:40:02;;;;;;;;;;;;;;;;;;5033477;28;19968;-75
2022/12/09 05:42:29;;;;;;;;;;;;;;;;;;5034114;28;20307;-76
2022/12/09 05:44:57;;;;;;;;;;;;;;;;;;5034026;28;20008;-75
2022/12/09 05:47:23;;;;;;;;;;;;;;;;;;5033821;28;19951;-76
2022/12/09 05:49:50;;;;;;;;;;;;;;;;;;5033410;28;19968;-76
2022/12/09 05:52:16;;;;;;;;;;;;;;;;;;5032631;28;19964;-76
2022/12/09 05:54:42;;;;;;;;;;;;;;;;;;5033629;28;20015;-74
2022/12/09 05:57:09;;;;;;;;;;;;;;;;;;5033715;28;19980;-75
2022/12/09 05:59:35;;;;;;;;;;;;;;;;;;5033996;28;19925;-75
2022/12/09 06:02:03;;;;;;;;;;;;;;;;;;5033432;28;19997;-75
2022/12/09 06:04:30;;;;;;;;;;;;;;;;;;5033432;28;20024;-76
2022/12/09 06:06:56;;;;;;;;;;;;;;;;;;5033583;28;19929;-75
2022/12/09 06:09:22;;;;;;;;;;;;;;;;;;5033694;28;20375;-76
2022/12/09 06:11:49;;;;;;;;;;;;;;;;;;5033019;28;19995;-74
2022/12/09 06:14:15;;;;;;;;;;;;;;;;;;5033358;28;20379;-74
2022/12/09 06:16:42;;;;;;;;;;;;;;;;;;5033540;28;20375;-75
2022/12/09 06:19:11;;;;;;;;;;;;;;;;;;5033496;28;20345;-75
2022/12/09 06:21:39;;;;;;;;;;;;;;;;;;5033316;28;20299;-74
2022/12/09 06:24:06;;;;;;;;;;;;;;;;;;5033130;28;20016;-75
2022/12/09 06:26:32;;;;;;;;;;;;;;;;;;5032861;28;19979;-75
2022/12/09 06:28:59;;;;;;;;;;;;;;;;;;5032846;28;20003;-75
2022/12/09 06:31:26;;;;;;;;;;;;;;;;;;5032717;28;20398;-75
2022/12/09 06:33:53;;;;;;;;;;;;;;;;;;5032864;28;20007;-75
2022/12/09 06:36:21;;;;;;;;;;;;;;;;;;5032891;28;20446;-76
2022/12/09 06:38:47;;;;;;;;;;;;;;;;;;5033043;28;19925;-75
2022/12/09 06:41:14;;;;;;;;;;;;;;;;;;5032818;28;20017;-76
2022/12/09 06:43:41;;;;;;;;;;;;;;;;;;5032796;28;20343;-76
2022/12/09 06:46:11;;;;;;;;;;;;;;;;;;5032752;28;19925;-76
2022/12/09 06:48:38;;;;;;;;;;;;;;;;;;5032778;28;19971;-75
2022/12/09 06:51:04;;;;;;;;;;;;;;;;;;5032470;28;20475;-76
2022/12/09 06:53:32;;;;;;;;;;;;;;;;;;5032206;28;20017;-76
2022/12/09 06:56:01;;;;;;;;;;;;;;;;;;5032716;28;20610;-77
2022/12/09 06:58:27;;;;;;;;;;;;;;;;;;5032274;28;20350;-74
2022/12/09 07:00:53;;;;;;;;;;;;;;;;;;5042026;28;19956;-73
2022/12/09 07:03:20;;;;;;;;;;;;;;;;;;5046900;28;19932;-74
2022/12/09 07:05:46;;;;;;;;;;;;;;;;;;5035290;28;20351;-76
2022/12/09 07:08:13;;;;;;;;;;;;;;;;;;5033490;28;20443;-75
2022/12/09 07:10:44;;;;;;;;;;;;;;;;;;5031992;28;20402;-75
2022/12/09 07:13:10;;;;;;;;;;;;;;;;;;5032860;28;19929;-74
2022/12/09 07:15:37;;;;;;;;;;;;;;;;;;5032759;28;19925;-75
2022/12/09 07:18:04;;;;;;;;;;;;;;;;;;5032022;28;20439;-74
2022/12/09 07:20:30;;;;;;;;;;;;;;;;;;5032304;28;19979;-76
2022/12/09 07:22:56;;;;;;;;;;;;;;;;;;5033354;28;19968;-75
2022/12/09 07:25:23;;;;;;;;;;;;;;;;;;5033562;28;19972;-76
2022/12/09 07:27:51;;;;;;;;;;;;;;;;;;5033278;28;19965;-76
2022/12/09 07:30:17;;;;;;;;;;;;;;;;;;5033320;28;20410;-75
2022/12/09 07:32:44;;;;;;;;;;;;;;;;;;5033022;28;20578;-76
2022/12/09 07:35:10;;;;;;;;;;;;;;;;;;5033914;28;20390;-76
2022/12/09 07:37:37;;;;;;;;;;;;;;;;;;5032304;28;20346;-75
2022/12/09 07:40:03;;;;;;;;;;;;;;;;;;5032451;28;19925;-76
2022/12/09 07:42:30;;;;;;;;;;;;;;;;;;5031942;28;19980;-76
2022/12/09 07:44:58;;;;;;;;;;;;;;;;;;5032270;28;19932;-76
2022/12/09 07:47:24;;;;;;;;;;;;;;;;;;5032053;28;19977;-75
2022/12/09 07:49:51;;;;;;;;;;;;;;;;;;5032770;28;19925;-75
2022/12/09 07:52:18;;;;;;;;;;;;;;;;;;5032134;28;19971;-76
2022/12/09 07:54:44;;;;;;;;;;;;;;;;;;5032141;28;19951;-76
2022/12/09 07:57:11;;;;;;;;;;;;;;;;;;5031498;28;19971;-75
2022/12/09 07:59:37;;;;;;;;;;;;;;;;;;5032276;28;20013;-75
2022/12/09 08:02:05;;;;;;;;;;;;;;;;;;5031656;28;20418;-76
2022/12/09 08:04:32;;;;;;;;;;;;;;;;;;5031860;28;19925;-76
2022/12/09 08:06:58;;;;;;;;;;;;;;;;;;5031388;28;19964;-75
2022/12/09 08:09:25;;;;;;;;;;;;;;;;;;5031942;28;20400;-77
2022/12/09 08:11:51;;;;;;;;;;;;;;;;;;5029373;28;20019;-75
2022/12/09 08:14:17;;;;;;;;;;;;;;;;;;5031657;28;20370;-76
2022/12/09 08:16:44;;;;;;;;;;;;;;;;;;5034855;28;19932;-76
2022/12/09 08:19:12;;;;;;;;;;;;;;;;;;5035126;28;19932;-75
2022/12/09 08:21:39;;;;;;;;;;;;;;;;;;5026017;28;20020;-76
2022/12/09 08:24:06;;;;;;;;;;;;;;;;;;5033596;28;20047;-76
2022/12/09 08:26:33;;;;;;;;;;;;;;;;;;5033369;28;19929;-75
2022/12/09 08:28:59;;;;;;;;;;;;;;;;;;5033837;28;19968;-76
2022/12/09 08:31:26;;;;;;;;;;;;;;;;;;5032622;28;19983;-76
2022/12/09 08:33:53;;;;;;;;;;;;;;;;;;5033398;28;20075;-75
2022/12/09 08:36:22;;;;;;;;;;;;;;;;;;5033144;28;19968;-76
2022/12/09 08:38:49;;;;;;;;;;;;;;;;;;5017914;28;19968;-75
2022/12/09 08:41:17;;;;;;;;;;;;;;;;;;5032975;28;19925;-75
2022/12/09 08:43:44;;;;;;;;;;;;;;;;;;5033354;28;20001;-75
2022/12/09 08:46:11;;;;;;;;;;;;;;;;;;5032766;28;19972;-74
2022/12/09 08:48:38;;;;;;;;;;;;;;;;;;5032612;28;20011;-75
2022/12/09 08:51:04;;;;;;;;;;;;;;;;;;5032530;28;19979;-75
2022/12/09 08:53:32;;;;;;;;;;;;;;;;;;5032426;28;20358;-74
2022/12/09 08:55:59;;;;;;;;;;;;;;;;;;5032597;28;19968;-75
2022/12/09 08:58:25;;;;;;;;;;;;;;;;;;5032524;28;20591;-75
2022/12/09 09:00:52;;;;;;;;;;;;;;;;;;5032605;28;19956;-74
2022/12/09 09:03:18;;;;;;;;;;;;;;;;;;5034649;28;20015;-76
2022/12/09 09:05:45;;;;;;;;;;;;;;;;;;5031508;28;20627;-75
2022/12/09 09:08:11;;;;;;;;;;;;;;;;;;5032423;28;20100;-76
2022/12/09 09:10:39;;;;;;;;;;;;;;;;;;5037777;28;19952;-81
2022/12/09 09:13:05;;;;;;;;;;;;;;;;;;5035301;28;19925;-77
2022/12/09 09:15:32;;;;;;;;;;;;;;;;;;5033251;28;20023;-77
2022/12/09 09:17:58;;;;;;;;;;;;;;;;;;5032615;28;19925;-74
2022/12/09 09:20:25;;;;;;;;;;;;;;;;;;5033394;28;19975;-77
2022/12/09 09:22:51;;;;;;;;;;;;;;;;;;5033226;28;20034;-73
2022/12/09 09:25:18;;;;;;;;;;;;;;;;;;5032165;28;20525;-72
2022/12/09 09:27:46;;;;;;;;;;;;;;;;;;5031681;28;19931;-72
2022/12/09 09:30:12;;;;;;;;;;;;;;;;;;5033084;28;19967;-76
2022/12/09 09:32:39;;;;;;;;;;;;;;;;;;5033953;28;20019;-77
2022/12/09 09:35:05;;;;;;;;;;;;;;;;;;5031593;28;20353;-77
2022/12/09 09:37:32;;;;;;;;;;;;;;;;;;5033348;28;19976;-78
2022/12/09 09:39:58;;;;;;;;;;;;;;;;;;5032903;28;19964;-76
2022/12/09 09:42:30;;;;;;;;;;;;;;;;;;5033038;28;20370;-77
2022/12/09 09:44:58;;;;;;;;;;;;;;;;;;5033520;28;19976;-76
2022/12/09 09:47:27;;;;;;;;;;;;;;;;;;5032735;28;20360;-77
2022/12/09 09:49:55;;;;;;;;;;;;;;;;;;5033512;28;19929;-77
2022/12/09 09:52:23;;;;;;;;;;;;;;;;;;5037419;28;19925;-77
2022/12/09 09:54:51;;;;;;;;;;;;;;;;;;5051664;28;19925;-78
2022/12/09 09:57:19;;;;;;;;;;;;;;;;;;5044192;28;19929;-76
2022/12/09 09:59:58;;;;;;;;;;;;;;;;;;5033351;28;19961;-78
2022/12/09 10:02:31;;;;;;;;;;;;;;;;;;5032373;28;20396;-78
2022/12/09 10:05:04;;;;;;;;;;;;;;;;;;5032270;28;19960;-77
2022/12/09 10:07:33;;;;;;;;;;;;;;;;;;5032210;28;20440;-77
2022/12/09 10:10:05;;;;;;;;;;;;;;;;;;5032109;28;20403;-76
2022/12/09 10:12:37;;;;;;;;;;;;;;;;;;5026754;28;19931;-77
2022/12/09 10:15:08;;;;;;;;;;;;;;;;;;5032613;28;20012;-78
2022/12/09 10:17:41;;;;;;;;;;;;;;;;;;5032329;28;20273;-77
2022/12/09 10:20:11;;;;;;;;;;;;;;;;;;5032677;28;20534;-77
2022/12/09 10:22:41;;;;;;;;;;;;;;;;;;5033114;28;19926;-76
2022/12/09 10:25:15;;;;;;;;;;;;;;;;;;5034764;28;20024;-77
2022/12/09 10:27:45;;;;;;;;;;;;;;;;;;5031646;28;20532;-77
2022/12/09 10:30:12;;;;;;;;;;;;;;;;;;5027886;28;19929;-79
2022/12/09 10:32:41;;;;;;;;;;;;;;;;;;5018193;28;19925;-76
2022/12/09 10:35:12;;;;;;;;;;;;;;;;;;5035418;28;19929;-76
2022/12/09 10:37:39;;;;;;;;;;;;;;;;;;5041477;28;20291;-77
2022/12/09 10:40:15;;;;;;;;;;;;;;;;;;5033324;28;19976;-77
2022/12/09 10:45:28;;;;;;;;;;;;;;;;;;5012974;28;19973;-78
2022/12/09 10:47:56;;;;;;;;;;;;;;;;;;5013593;28;19964;-77
2022/12/09 10:50:28;;;;;;;;;;;;;;;;;;5032479;28;19968;-76
2022/12/09 10:52:55;;;;;;;;;;;;;;;;;;5032504;28;19947;-78
2022/12/09 10:55:24;;;;;;;;;;;;;;;;;;5033590;28;19979;-77
2022/12/09 10:57:50;;;;;;;;;;;;;;;;;;5031210;28;19960;-76
2022/12/09 11:00:21;;;;;;;;;;;;;;;;;;5032265;28;19937;-77
2022/12/09 11:02:50;;;;;;;;;;;;;;;;;;5032348;28;20019;-77
2022/12/09 11:05:26;;;;;;;;;;;;;;;;;;5028751;28;19971;-77
2022/12/09 11:07:54;;;;;;;;;;;;;;;;;;5032433;28;19932;-77
2022/12/09 11:10:22;;;;;;;;;;;;;;;;;;5034457;28;19925;-77
2022/12/09 11:12:51;;;;;;;;;;;;;;;;;;5035293;28;20447;-77
2022/12/09 11:15:28;;;;;;;;;;;;;;;;;;5015150;28;20449;-77
2022/12/09 11:17:56;;;;;;;;;;;;;;;;;;5034043;28;19939;-79
2022/12/09 11:20:26;;;;;;;;;;;;;;;;;;5032178;28;20013;-77
2022/12/09 11:22:58;;;;;;;;;;;;;;;;;;5031425;28;19970;-77
2022/12/09 11:25:26;;;;;;;;;;;;;;;;;;5032023;28;20015;-77
2022/12/09 11:27:54;;;;;;;;;;;;;;;;;;5031568;28;20339;-78
2022/12/09 11:30:21;;;;;;;;;;;;;;;;;;5031868;28;20449;-77
2022/12/09 11:32:54;;;;;;;;;;;;;;;;;;5033286;28;19935;-79
2022/12/09 11:35:25;;;;;;;;;;;;;;;;;;5032849;28;19968;-77
2022/12/09 11:37:53;;;;;;;;;;;;;;;;;;5027503;28;19980;-76
2022/12/09 11:40:20;;;;;;;;;;;;;;;;;;5034381;28;19976;-79
2022/12/09 11:42:49;;;;;;;;;;;;;;;;;;5032105;28;20265;-77
2022/12/09 11:45:18;;;;;;;;;;;;;;;;;;5032980;28;20019;-77
2022/12/09 11:47:46;;;;;;;;;;;;;;;;;;5031490;28;20430;-77
2022/12/09 11:50:22;;;;;;;;;;;;;;;;;;5033099;28;19925;-76
2022/12/09 11:53:04;;;;;;;;;;;;;;;;;;5041645;28;19988;-76
2022/12/09 11:55:32;;;;;;;;;;;;;;;;;;5031170;22;19930;-77
2022/12/09 11:58:00;;;;;;;;;;;;;;;;;;5022447;28;19991;-76
2022/12/09 12:00:39;;;;;;;;;;;;;;;;;;5013878;28;20024;-77
2022/12/09 12:03:11;;;;;;;;;;;;;;;;;;5031155;28;20031;-76
2022/12/09 12:05:39;;;;;;;;;;;;;;;;;;5014836;28;20191;-76
2022/12/09 12:08:12;;;;;;;;;;;;;;;;;;5013804;28;20004;-77
2022/12/09 12:10:42;;;;;;;;;;;;;;;;;;5022699;28;19925;-83
2022/12/09 12:13:12;;;;;;;;;;;;;;;;;;5014537;28;19979;-75
2022/12/09 12:15:42;;;;;;;;;;;;;;;;;;5014772;28;19940;-77
2022/12/09 12:18:12;;;;;;;;;;;;;;;;;;5007147;28;20309;-75
2022/12/09 12:20:42;;;;;;;;;;;;;;;;;;5007906;28;20344;-76
2022/12/09 12:23:15;;;;;;;;;;;;;;;;;;5015290;28;20016;-78
2022/12/09 12:25:49;;;;;;;;;;;;;;;;;;5016590;28;19984;-75
2022/12/09 12:28:36;;;;;;;;;;;;;;;;;;5013946;28;20024;-75
2022/12/09 12:31:08;;;;;;;;;;;;;;;;;;5009871;28;19984;-75
2022/12/09 12:33:41;;;;;;;;;;;;;;;;;;5013607;28;19925;-75
2022/12/09 12:36:10;;;;;;;;;;;;;;;;;;5013608;28;20081;-79
2022/12/09 12:38:48;;;;;;;;;;;;;;;;;;5013460;28;19972;-74
2022/12/09 12:41:21;;;;;;;;;;;;;;;;;;5013294;28;19976;-75
2022/12/09 12:46:46;;;;;;;;;;;;;;;;;;5013301;28;20027;-75
2022/12/09 12:49:31;;;;;;;;;;;;;;;;;;5013648;28;19925;-75
2022/12/09 12:52:02;;;;;;;;;;;;;;;;;;5012545;28;19991;-75
2022/12/09 12:54:35;;;;;;;;;;;;;;;;;;5012874;28;19973;-75
2022/12/09 12:57:06;;;;;;;;;;;;;;;;;;5012945;28;20377;-75
2022/12/09 12:59:36;;;;;;;;;;;;;;;;;;5013225;28;19979;-76
2022/12/09 13:02:10;;;;;;;;;;;;;;;;;;5011348;28;19968;-74
2022/12/09 13:04:39;;;;;;;;;;;;;;;;;;5011996;28;19983;-75
2022/12/09 13:07:07;;;;;;;;;;;;;;;;;;5012775;28;19953;-75
2022/12/09 13:09:36;;;;;;;;;;;;;;;;;;5012244;28;20440;-75
2022/12/09 13:12:06;;;;;;;;;;;;;;;;;;5001385;28;20043;-75
2022/12/09 13:14:34;;;;;;;;;;;;;;;;;;5012181;28;19965;-75
2022/12/09 13:17:01;;;;;;;;;;;;;;;;;;5012806;28;20012;-76
2022/12/09 13:19:29;;;;;;;;;;;;;;;;;;5011916;28;19965;-75
2022/12/09 13:21:56;;;;;;;;;;;;;;;;;;5011618;28;20277;-75
2022/12/09 13:24:31;;;;;;;;;;;;;;;;;;5010504;28;20024;-74
2022/12/09 13:26:59;;;;;;;;;;;;;;;;;;5012354;28;19977;-74
2022/12/09 13:29:39;;;;;;;;;;;;;;;;;;5012517;28;20008;-75
2022/12/09 13:32:12;;;;;;;;;;;;;;;;;;5011156;28;20446;-75
2022/12/09 13:34:40;;;;;;;;;;;;;;;;;;5012453;28;19929;-75
2022/12/09 13:37:30;;;;;;;;;;;;;;;;;;5012065;28;20380;-75
2022/12/09 13:39:57;;;;;;;;;;;;;;;;;;4992728;28;20068;-75
2022/12/09 13:45:24;;;;;;;;;;;;;;;;;;4992546;28;20404;-76
2022/12/09 13:47:52;;;;;;;;;;;;;;;;;;5009062;28;19926;-76
2022/12/09 13:50:23;;;;;;;;;;;;;;;;;;5012088;28;20020;-75
2022/12/09 13:52:51;;;;;;;;;;;;;;;;;;5011505;28;19932;-75
2022/12/09 13:55:19;;;;;;;;;;;;;;;;;;5011911;28;19925;-75
2022/12/09 13:57:50;;;;;;;;;;;;;;;;;;5012805;28;20008;-77
2022/12/09 14:00:18;;;;;;;;;;;;;;;;;;5011352;28;20491;-74
2022/12/09 14:02:52;;;;;;;;;;;;;;;;;;5013037;28;19944;-83
2022/12/09 14:05:21;;;;;;;;;;;;;;;;;;5016682;28;20339;-77
2022/12/09 14:07:49;;;;;;;;;;;;;;;;;;5011943;28;19957;-75
2022/12/09 14:10:34;;;;;;;;;;;;;;;;;;5013618;28;19926;-75
2022/12/09 14:13:02;;;;;;;;;;;;;;;;;;5010170;28;19930;-76
2022/12/09 14:15:36;;;;;;;;;;;;;;;;;;5010219;28;19964;-76
2022/12/09 14:18:05;;;;;;;;;;;;;;;;;;5011375;28;20016;-75
2022/12/09 14:20:33;;;;;;;;;;;;;;;;;;5008503;28;19998;-75
2022/12/09 14:23:18;;;;;;;;;;;;;;;;;;5010874;28;19991;-76
2022/12/09 14:25:46;;;;;;;;;;;;;;;;;;5011174;28;19926;-74
2022/12/09 14:28:31;;;;;;;;;;;;;;;;;;5011154;28;20009;-75
2022/12/09 14:30:59;;;;;;;;;;;;;;;;;;5011034;28;20024;-75
2022/12/09 14:33:31;;;;;;;;;;;;;;;;;;5010508;28;20020;-75
2022/12/09 14:36:01;;;;;;;;;;;;;;;;;;5011003;28;20005;-75
2022/12/09 14:38:29;;;;;;;;;;;;;;;;;;5010549;28;19926;-75
2022/12/09 14:40:59;;;;;;;;;;;;;;;;;;5011006;28;20435;-75
2022/12/09 14:43:42;;;;;;;;;;;;;;;;;;5010536;28;19929;-76
2022/12/09 14:46:18;;;;;;;;;;;;;;;;;;5011092;28;19961;-75
2022/12/09 14:48:49;;;;;;;;;;;;;;;;;;5010825;28;20112;-75
2022/12/09 14:51:17;;;;;;;;;;;;;;;;;;5010604;28;19969;-75
2022/12/09 14:53:47;;;;;;;;;;;;;;;;;;4997975;28;19925;-75
2022/12/09 14:56:15;;;;;;;;;;;;;;;;;;5010956;28;20593;-75
2022/12/09 14:58:45;;;;;;;;;;;;;;;;;;5010298;28;19972;-75
2022/12/09 15:01:12;;;;;;;;;;;;;;;;;;5010632;28;19925;-75
2022/12/09 15:03:38;;;;;;;;;;;;;;;;;;5010437;28;20016;-74
2022/12/09 15:06:11;;;;;;;;;;;;;;;;;;5010431;28;20024;-74
2022/12/09 15:08:41;;;;;;;;;;;;;;;;;;5010434;28;20387;-74
2022/12/09 15:11:09;;;;;;;;;;;;;;;;;;5010627;28;20415;-77
2022/12/09 15:13:36;;;;;;;;;;;;;;;;;;5010302;28;20460;-75
2022/12/09 15:16:06;;;;;;;;;;;;;;;;;;5010659;28;20376;-76
2022/12/09 15:18:33;;;;;;;;;;;;;;;;;;5010642;28;19979;-74
2022/12/09 15:21:01;;;;;;;;;;;;;;;;;;5009966;28;19981;-76
2022/12/09 15:23:30;;;;;;;;;;;;;;;;;;5010690;28;19932;-72
2022/12/09 15:25:58;;;;;;;;;;;;;;;;;;5012568;28;20004;-73
2022/12/09 15:28:25;;;;;;;;;;;;;;;;;;5014360;28;20452;-73
2022/12/09 15:30:54;;;;;;;;;;;;;;;;;;5014314;28;20416;-73
2022/12/09 15:33:20;;;;;;;;;;;;;;;;;;5014457;28;20024;-77
2022/12/09 15:35:51;;;;;;;;;;;;;;;;;;5014639;28;20396;-73
2022/12/09 15:38:17;;;;;;;;;;;;;;;;;;5014098;28;20016;-75
2022/12/09 15:43:26;;;;;;;;;;;;;;;;;;5014666;28;19926;-75
2022/12/09 15:45:53;;;;;;;;;;;;;;;;;;5015239;28;20348;-76
2022/12/09 15:48:21;;;;;;;;;;;;;;;;;;5014101;28;20024;-76
2022/12/09 15:50:49;;;;;;;;;;;;;;;;;;4999448;28;19997;-75
2022/12/09 15:53:17;;;;;;;;;;;;;;;;;;5009251;28;20368;-76
2022/12/09 15:55:49;;;;;;;;;;;;;;;;;;5013764;28;19932;-75
2022/12/09 15:58:18;;;;;;;;;;;;;;;;;;5013631;28;19926;-75
2022/12/09 16:00:47;;;;;;;;;;;;;;;;;;5013911;28;19925;-75
2022/12/09 16:03:15;;;;;;;;;;;;;;;;;;5013750;28;19979;-76
2022/12/09 16:05:42;;;;;;;;;;;;;;;;;;5013946;28;19931;-76
2022/12/09 16:08:09;;;;;;;;;;;;;;;;;;5008402;28;20424;-77
2022/12/09 16:10:45;;;;;;;;;;;;;;;;;;4994387;28;19981;-75
2022/12/09 16:13:13;;;;;;;;;;;;;;;;;;5000072;28;19965;-75
2022/12/09 16:15:45;;;;;;;;;;;;;;;;;;5013717;28;19925;-75
2022/12/09 16:18:14;;;;;;;;;;;;;;;;;;5013595;28;20016;-74
2022/12/09 16:20:41;;;;;;;;;;;;;;;;;;5011451;28;19929;-74
2022/12/09 16:23:18;;;;;;;;;;;;;;;;;;5002328;28;19925;-75
2022/12/09 16:25:46;;;;;;;;;;;;;;;;;;5009999;28;20454;-75
2022/12/09 16:28:19;;;;;;;;;;;;;;;;;;5004675;28;19964;-75
2022/12/09 16:30:46;;;;;;;;;;;;;;;;;;5012982;28;20424;-75
2022/12/09 16:33:15;;;;;;;;;;;;;;;;;;5013577;28;20033;-75
2022/12/09 16:35:43;;;;;;;;;;;;;;;;;;5012998;28;19925;-74
2022/12/09 16:38:14;;;;;;;;;;;;;;;;;;5013310;28;20016;-76
2022/12/09 16:41:01;;;;;;;;;;;;;;;;;;5012964;28;19930;-75
2022/12/09 16:43:29;;;;;;;;;;;;;;;;;;5012745;28;20339;-75
2022/12/09 16:45:56;;;;;;;;;;;;;;;;;;5013093;28;19925;-74
2022/12/09 16:51:25;;;;;;;;;;;;;;;;;;5010394;28;19924;-78
2022/12/09 16:53:53;;;;;;;;;;;;;;;;;;5012173;28;19926;-78
2022/12/09 16:56:20;;;;;;;;;;;;;;;;;;5005299;28;19926;-76
2022/12/09 16:58:48;;;;;;;;;;;;;;;;;;5011628;28;20012;-77
2022/12/09 17:01:16;;;;;;;;;;;;;;;;;;5014499;28;20004;-85
2022/12/09 17:03:45;;;;;;;;;;;;;;;;;;5012828;28;19929;-77
2022/12/09 17:06:13;;;;;;;;;;;;;;;;;;5009531;28;19994;-76
2022/12/09 17:08:39;;;;;;;;;;;;;;;;;;5008852;28;19926;-75